sensor_id;sensor_type;location;lat;lon;timestamp;P1;durP1;ratioP1;P2;durP2;ratioP2
31786;SDS011;18356;52.380;9.820;2022-08-11T00:01:10;3.72;;;2.15;;
31786;SDS011;18356;52.380;9.820;2022-08-11T00:03:41;3.28;;;2.00;;
31786;SDS011;18356;52.380;9.820;2022-08-11T00:06:08;5.53;;;1.77;;
31786;SDS011;18356;52.380;9.820;2022-08-11T00:08:35;8.63;;;2.20;;
31786;SDS011;18356;52.380;9.820;2022-08-11T00:11:02;5.30;;;2.25;;
31786;SDS011;18356;52.380;9.820;2022-08-11T00:13:37;6.00;;;1.90;;
31786;SDS011;18356;52.380;9.820;2022-08-11T00:16:07;3.83;;;2.03;;
31786;SDS011;18356;52.380;9.820;2022-08-11T00:18:39;5.35;;;1.90;;
31786;SDS011;18356;52.380;9.820;2022-08-11T00:21:06;4.50;;;1.90;;
31786;SDS011;18356;52.380;9.820;2022-08-11T00:23:32;7.03;;;2.47;;
31786;SDS011;18356;52.380;9.820;2022-08-11T00:25:59;7.82;;;2.35;;
31786;SDS011;18356;52.380;9.820;2022-08-11T00:28:29;9.55;;;2.08;;
31786;SDS011;18356;52.380;9.820;2022-08-11T00:30:57;3.25;;;1.70;;
31786;SDS011;18356;52.380;9.820;2022-08-11T00:33:25;7.57;;;1.90;;
31786;SDS011;18356;52.380;9.820;2022-08-11T00:35:57;9.32;;;2.00;;
31786;SDS011;18356;52.380;9.820;2022-08-11T00:38:24;5.70;;;2.30;;
31786;SDS011;18356;52.380;9.820;2022-08-11T00:40:58;5.35;;;2.05;;
31786;SDS011;18356;52.380;9.820;2022-08-11T00:46:02;5.30;;;1.98;;
31786;SDS011;18356;52.380;9.820;2022-08-11T00:48:51;8.40;;;2.78;;
31786;SDS011;18356;52.380;9.820;2022-08-11T00:52:04;6.05;;;2.20;;
31786;SDS011;18356;52.380;9.820;2022-08-11T01:02:44;4.78;;;2.63;;
31786;SDS011;18356;52.380;9.820;2022-08-11T01:07:48;6.35;;;2.88;;
31786;SDS011;18356;52.380;9.820;2022-08-11T01:35:04;5.47;;;2.50;;
31786;SDS011;18356;52.380;9.820;2022-08-11T02:01:53;4.10;;;2.33;;
31786;SDS011;18356;52.380;9.820;2022-08-11T02:04:30;6.20;;;2.25;;
31786;SDS011;18356;52.380;9.820;2022-08-11T02:20:47;6.05;;;2.60;;
31786;SDS011;18356;52.380;9.820;2022-08-11T02:26:13;4.95;;;2.50;;
31786;SDS011;18356;52.380;9.820;2022-08-11T02:36:41;5.15;;;2.70;;
31786;SDS011;18356;52.380;9.820;2022-08-11T02:39:10;4.45;;;2.42;;
31786;SDS011;18356;52.380;9.820;2022-08-11T02:55:16;3.90;;;2.80;;
31786;SDS011;18356;52.380;9.820;2022-08-11T02:57:50;6.13;;;3.15;;
31786;SDS011;18356;52.380;9.820;2022-08-11T03:00:17;5.13;;;2.83;;
31786;SDS011;18356;52.380;9.820;2022-08-11T03:02:53;6.18;;;2.90;;
31786;SDS011;18356;52.380;9.820;2022-08-11T03:05:22;4.70;;;3.00;;
31786;SDS011;18356;52.380;9.820;2022-08-11T03:08:07;5.03;;;3.05;;
31786;SDS011;18356;52.380;9.820;2022-08-11T03:13:45;5.55;;;2.60;;
31786;SDS011;18356;52.380;9.820;2022-08-11T03:24:51;5.38;;;3.17;;
31786;SDS011;18356;52.380;9.820;2022-08-11T03:27:25;4.82;;;3.03;;
31786;SDS011;18356;52.380;9.820;2022-08-11T03:32:45;3.95;;;2.60;;
31786;SDS011;18356;52.380;9.820;2022-08-11T03:35:33;4.47;;;2.80;;
31786;SDS011;18356;52.380;9.820;2022-08-11T03:38:01;6.18;;;3.20;;
31786;SDS011;18356;52.380;9.820;2022-08-11T03:46:13;4.03;;;2.85;;
31786;SDS011;18356;52.380;9.820;2022-08-11T03:51:24;6.63;;;3.10;;
31786;SDS011;18356;52.380;9.820;2022-08-11T04:02:04;6.95;;;2.80;;
31786;SDS011;18356;52.380;9.820;2022-08-11T04:10:08;5.25;;;3.00;;
31786;SDS011;18356;52.380;9.820;2022-08-11T04:28:22;5.82;;;2.90;;
31786;SDS011;18356;52.380;9.820;2022-08-11T04:41:28;6.38;;;3.10;;
31786;SDS011;18356;52.380;9.820;2022-08-11T05:07:50;19.08;;;3.78;;
31786;SDS011;18356;52.380;9.820;2022-08-11T05:12:30;17.25;;;3.97;;
31786;SDS011;18356;52.380;9.820;2022-08-11T05:15:01;18.75;;;3.70;;
31786;SDS011;18356;52.380;9.820;2022-08-11T05:20:48;18.27;;;3.90;;
31786;SDS011;18356;52.380;9.820;2022-08-11T05:23:33;13.75;;;3.63;;
31786;SDS011;18356;52.380;9.820;2022-08-11T05:26:19;11.52;;;3.45;;
31786;SDS011;18356;52.380;9.820;2022-08-11T05:29:22;18.05;;;4.18;;
31786;SDS011;18356;52.380;9.820;2022-08-11T05:32:08;18.20;;;3.75;;
31786;SDS011;18356;52.380;9.820;2022-08-11T05:34:54;20.30;;;4.07;;
31786;SDS011;18356;52.380;9.820;2022-08-11T05:37:22;14.05;;;4.18;;
31786;SDS011;18356;52.380;9.820;2022-08-11T05:39:50;18.77;;;4.07;;
31786;SDS011;18356;52.380;9.820;2022-08-11T05:42:38;23.48;;;4.40;;
31786;SDS011;18356;52.380;9.820;2022-08-11T05:45:23;19.50;;;4.00;;
31786;SDS011;18356;52.380;9.820;2022-08-11T05:48:09;14.98;;;4.20;;
31786;SDS011;18356;52.380;9.820;2022-08-11T05:50:56;19.20;;;4.20;;
31786;SDS011;18356;52.380;9.820;2022-08-11T05:53:49;15.63;;;4.07;;
31786;SDS011;18356;52.380;9.820;2022-08-11T05:56:40;13.38;;;3.50;;
31786;SDS011;18356;52.380;9.820;2022-08-11T05:59:11;17.27;;;3.63;;
31786;SDS011;18356;52.380;9.820;2022-08-11T06:01:38;15.52;;;3.63;;
31786;SDS011;18356;52.380;9.820;2022-08-11T06:04:06;8.32;;;3.40;;
31786;SDS011;18356;52.380;9.820;2022-08-11T06:06:45;13.77;;;3.45;;
31786;SDS011;18356;52.380;9.820;2022-08-11T06:09:15;15.48;;;3.25;;
31786;SDS011;18356;52.380;9.820;2022-08-11T06:11:45;13.38;;;3.30;;
31786;SDS011;18356;52.380;9.820;2022-08-11T06:14:11;7.93;;;3.33;;
31786;SDS011;18356;52.380;9.820;2022-08-11T06:16:40;12.05;;;3.60;;
31786;SDS011;18356;52.380;9.820;2022-08-11T06:19:06;11.98;;;3.33;;
31786;SDS011;18356;52.380;9.820;2022-08-11T06:21:33;13.57;;;3.67;;
31786;SDS011;18356;52.380;9.820;2022-08-11T06:24:01;21.50;;;3.80;;
31786;SDS011;18356;52.380;9.820;2022-08-11T06:26:29;9.02;;;3.25;;
31786;SDS011;18356;52.380;9.820;2022-08-11T06:28:55;11.48;;;3.88;;
31786;SDS011;18356;52.380;9.820;2022-08-11T06:31:23;21.85;;;5.22;;
31786;SDS011;18356;52.380;9.820;2022-08-11T06:36:19;12.35;;;3.83;;
31786;SDS011;18356;52.380;9.820;2022-08-11T06:46:37;9.75;;;3.63;;
31786;SDS011;18356;52.380;9.820;2022-08-11T06:49:05;9.80;;;3.97;;
31786;SDS011;18356;52.380;9.820;2022-08-11T06:51:51;14.90;;;3.88;;
31786;SDS011;18356;52.380;9.820;2022-08-11T06:54:19;14.65;;;3.45;;
31786;SDS011;18356;52.380;9.820;2022-08-11T06:56:45;15.25;;;3.70;;
31786;SDS011;18356;52.380;9.820;2022-08-11T06:59:31;15.27;;;4.05;;
31786;SDS011;18356;52.380;9.820;2022-08-11T07:02:19;16.15;;;4.10;;
31786;SDS011;18356;52.380;9.820;2022-08-11T07:04:55;22.17;;;4.00;;
31786;SDS011;18356;52.380;9.820;2022-08-11T07:10:47;15.18;;;3.42;;
31786;SDS011;18356;52.380;9.820;2022-08-11T07:13:23;16.95;;;3.45;;
31786;SDS011;18356;52.380;9.820;2022-08-11T07:16:08;18.42;;;3.85;;
31786;SDS011;18356;52.380;9.820;2022-08-11T07:18:35;18.35;;;3.60;;
31786;SDS011;18356;52.380;9.820;2022-08-11T07:21:28;21.17;;;3.63;;
31786;SDS011;18356;52.380;9.820;2022-08-11T07:24:16;20.38;;;4.10;;
31786;SDS011;18356;52.380;9.820;2022-08-11T07:27:03;25.13;;;4.60;;
31786;SDS011;18356;52.380;9.820;2022-08-11T07:29:49;15.02;;;3.55;;
31786;SDS011;18356;52.380;9.820;2022-08-11T07:32:26;26.52;;;3.97;;
31786;SDS011;18356;52.380;9.820;2022-08-11T07:34:58;20.27;;;4.20;;
31786;SDS011;18356;52.380;9.820;2022-08-11T07:37:28;28.15;;;4.63;;
31786;SDS011;18356;52.380;9.820;2022-08-11T07:39:57;30.05;;;5.00;;
31786;SDS011;18356;52.380;9.820;2022-08-11T07:42:26;21.95;;;4.00;;
31786;SDS011;18356;52.380;9.820;2022-08-11T07:44:53;21.00;;;3.80;;
31786;SDS011;18356;52.380;9.820;2022-08-11T07:47:39;21.95;;;3.92;;
31786;SDS011;18356;52.380;9.820;2022-08-11T07:50:24;29.58;;;4.18;;
31786;SDS011;18356;52.380;9.820;2022-08-11T07:53:09;17.52;;;3.53;;
31786;SDS011;18356;52.380;9.820;2022-08-11T07:55:35;35.83;;;4.75;;
31786;SDS011;18356;52.380;9.820;2022-08-11T07:58:02;20.98;;;3.80;;
31786;SDS011;18356;52.380;9.820;2022-08-11T08:00:54;19.92;;;4.00;;
31786;SDS011;18356;52.380;9.820;2022-08-11T08:03:39;31.88;;;3.47;;
31786;SDS011;18356;52.380;9.820;2022-08-11T08:06:25;15.60;;;2.67;;
31786;SDS011;18356;52.380;9.820;2022-08-11T08:09:11;20.83;;;3.67;;
31786;SDS011;18356;52.380;9.820;2022-08-11T08:11:58;17.20;;;3.00;;
31786;SDS011;18356;52.380;9.820;2022-08-11T08:14:43;12.45;;;3.13;;
31786;SDS011;18356;52.380;9.820;2022-08-11T08:17:28;11.82;;;2.83;;
31786;SDS011;18356;52.380;9.820;2022-08-11T08:20:14;5.90;;;2.47;;
31786;SDS011;18356;52.380;9.820;2022-08-11T08:22:41;11.48;;;2.90;;
31786;SDS011;18356;52.380;9.820;2022-08-11T08:25:07;10.73;;;2.60;;
31786;SDS011;18356;52.380;9.820;2022-08-11T08:27:34;4.30;;;2.35;;
31786;SDS011;18356;52.380;9.820;2022-08-11T08:30:03;10.48;;;2.78;;
31786;SDS011;18356;52.380;9.820;2022-08-11T08:32:48;7.40;;;2.13;;
31786;SDS011;18356;52.380;9.820;2022-08-11T08:35:15;13.48;;;2.55;;
31786;SDS011;18356;52.380;9.820;2022-08-11T08:37:42;8.73;;;2.40;;
31786;SDS011;18356;52.380;9.820;2022-08-11T08:40:08;8.98;;;2.20;;
31786;SDS011;18356;52.380;9.820;2022-08-11T08:42:39;10.27;;;2.42;;
31786;SDS011;18356;52.380;9.820;2022-08-11T08:45:10;5.22;;;2.20;;
31786;SDS011;18356;52.380;9.820;2022-08-11T08:47:50;9.05;;;2.20;;
31786;SDS011;18356;52.380;9.820;2022-08-11T08:50:19;9.15;;;2.28;;
31786;SDS011;18356;52.380;9.820;2022-08-11T08:52:49;7.10;;;2.10;;
31786;SDS011;18356;52.380;9.820;2022-08-11T08:55:17;18.75;;;2.65;;
31786;SDS011;18356;52.380;9.820;2022-08-11T08:57:44;11.85;;;2.65;;
31786;SDS011;18356;52.380;9.820;2022-08-11T09:00:12;11.35;;;2.30;;
31786;SDS011;18356;52.380;9.820;2022-08-11T09:02:39;9.60;;;2.30;;
31786;SDS011;18356;52.380;9.820;2022-08-11T09:05:06;4.72;;;2.33;;
31786;SDS011;18356;52.380;9.820;2022-08-11T09:07:34;7.63;;;2.03;;
31786;SDS011;18356;52.380;9.820;2022-08-11T09:10:00;7.70;;;2.10;;
31786;SDS011;18356;52.380;9.820;2022-08-11T09:12:29;8.30;;;2.65;;
31786;SDS011;18356;52.380;9.820;2022-08-11T09:14:56;6.38;;;2.40;;
31786;SDS011;18356;52.380;9.820;2022-08-11T09:17:28;11.43;;;1.90;;
31786;SDS011;18356;52.380;9.820;2022-08-11T09:22:31;7.43;;;2.58;;
31786;SDS011;18356;52.380;9.820;2022-08-11T09:25:16;4.88;;;1.73;;
31786;SDS011;18356;52.380;9.820;2022-08-11T09:28:02;5.18;;;1.60;;
31786;SDS011;18356;52.380;9.820;2022-08-11T09:30:32;4.38;;;1.60;;
31786;SDS011;18356;52.380;9.820;2022-08-11T09:33:00;8.00;;;2.00;;
31786;SDS011;18356;52.380;9.820;2022-08-11T09:35:29;5.40;;;1.90;;
31786;SDS011;18356;52.380;9.820;2022-08-11T09:37:56;10.38;;;1.70;;
31786;SDS011;18356;52.380;9.820;2022-08-11T09:40:42;6.15;;;1.70;;
31786;SDS011;18356;52.380;9.820;2022-08-11T09:43:09;6.10;;;1.70;;
31786;SDS011;18356;52.380;9.820;2022-08-11T09:45:54;4.30;;;1.52;;
31786;SDS011;18356;52.380;9.820;2022-08-11T09:48:22;3.15;;;1.50;;
31786;SDS011;18356;52.380;9.820;2022-08-11T09:50:50;4.88;;;1.40;;
31786;SDS011;18356;52.380;9.820;2022-08-11T09:53:17;5.47;;;1.90;;
31786;SDS011;18356;52.380;9.820;2022-08-11T09:55:43;2.65;;;1.40;;
31786;SDS011;18356;52.380;9.820;2022-08-11T09:58:10;9.02;;;1.67;;
31786;SDS011;18356;52.380;9.820;2022-08-11T10:00:49;7.30;;;1.83;;
31786;SDS011;18356;52.380;9.820;2022-08-11T10:03:23;6.47;;;1.50;;
31786;SDS011;18356;52.380;9.820;2022-08-11T10:05:54;7.70;;;1.90;;
31786;SDS011;18356;52.380;9.820;2022-08-11T10:08:40;7.53;;;1.60;;
31786;SDS011;18356;52.380;9.820;2022-08-11T10:11:09;6.88;;;1.65;;
31786;SDS011;18356;52.380;9.820;2022-08-11T10:13:36;5.65;;;1.60;;
31786;SDS011;18356;52.380;9.820;2022-08-11T10:16:25;3.47;;;1.60;;
31786;SDS011;18356;52.380;9.820;2022-08-11T10:18:52;4.82;;;1.80;;
31786;SDS011;18356;52.380;9.820;2022-08-11T10:23:56;8.15;;;1.88;;
31786;SDS011;18356;52.380;9.820;2022-08-11T10:26:42;4.00;;;1.70;;
31786;SDS011;18356;52.380;9.820;2022-08-11T10:32:17;4.35;;;1.70;;
31786;SDS011;18356;52.380;9.820;2022-08-11T10:35:03;5.05;;;1.60;;
31786;SDS011;18356;52.380;9.820;2022-08-11T10:37:33;4.45;;;1.63;;
31786;SDS011;18356;52.380;9.820;2022-08-11T10:40:01;5.53;;;1.73;;
31786;SDS011;18356;52.380;9.820;2022-08-11T10:42:27;7.40;;;1.70;;
31786;SDS011;18356;52.380;9.820;2022-08-11T10:45:12;5.75;;;1.50;;
31786;SDS011;18356;52.380;9.820;2022-08-11T10:47:58;3.88;;;1.65;;
31786;SDS011;18356;52.380;9.820;2022-08-11T10:50:25;3.35;;;1.52;;
31786;SDS011;18356;52.380;9.820;2022-08-11T10:53:10;10.65;;;2.30;;
31786;SDS011;18356;52.380;9.820;2022-08-11T10:55:56;7.45;;;2.55;;
31786;SDS011;18356;52.380;9.820;2022-08-11T10:58:42;5.60;;;1.80;;
31786;SDS011;18356;52.380;9.820;2022-08-11T11:01:20;3.55;;;1.67;;
31786;SDS011;18356;52.380;9.820;2022-08-11T11:03:51;3.33;;;1.40;;
31786;SDS011;18356;52.380;9.820;2022-08-11T11:08:52;4.32;;;1.67;;
31786;SDS011;18356;52.380;9.820;2022-08-11T11:11:21;12.00;;;2.05;;
31786;SDS011;18356;52.380;9.820;2022-08-11T11:13:48;5.90;;;1.50;;
31786;SDS011;18356;52.380;9.820;2022-08-11T11:16:36;7.88;;;1.60;;
31786;SDS011;18356;52.380;9.820;2022-08-11T11:19:22;7.47;;;1.48;;
31786;SDS011;18356;52.380;9.820;2022-08-11T11:21:50;6.30;;;1.70;;
31786;SDS011;18356;52.380;9.820;2022-08-11T11:27:19;3.65;;;1.38;;
31786;SDS011;18356;52.380;9.820;2022-08-11T11:37:18;10.20;;;1.40;;
31786;SDS011;18356;52.380;9.820;2022-08-11T11:39:44;5.35;;;1.33;;
31786;SDS011;18356;52.380;9.820;2022-08-11T11:42:11;5.90;;;1.70;;
31786;SDS011;18356;52.380;9.820;2022-08-11T11:44:38;5.22;;;1.50;;
31786;SDS011;18356;52.380;9.820;2022-08-11T11:47:04;4.57;;;2.00;;
31786;SDS011;18356;52.380;9.820;2022-08-11T11:49:31;5.18;;;1.60;;
31786;SDS011;18356;52.380;9.820;2022-08-11T11:51:59;4.47;;;1.50;;
31786;SDS011;18356;52.380;9.820;2022-08-11T11:54:30;3.75;;;1.50;;
31786;SDS011;18356;52.380;9.820;2022-08-11T11:56:57;6.05;;;1.67;;
31786;SDS011;18356;52.380;9.820;2022-08-11T11:59:44;4.97;;;1.40;;
31786;SDS011;18356;52.380;9.820;2022-08-11T12:02:29;4.68;;;1.30;;
31786;SDS011;18356;52.380;9.820;2022-08-11T12:04:55;4.43;;;1.60;;
31786;SDS011;18356;52.380;9.820;2022-08-11T12:07:21;3.83;;;1.67;;
31786;SDS011;18356;52.380;9.820;2022-08-11T12:10:06;5.75;;;1.40;;
31786;SDS011;18356;52.380;9.820;2022-08-11T12:12:33;4.60;;;1.55;;
31786;SDS011;18356;52.380;9.820;2022-08-11T12:15:18;3.30;;;1.40;;
31786;SDS011;18356;52.380;9.820;2022-08-11T12:17:44;8.20;;;1.50;;
31786;SDS011;18356;52.380;9.820;2022-08-11T12:20:11;4.75;;;1.35;;
31786;SDS011;18356;52.380;9.820;2022-08-11T12:22:39;6.32;;;1.50;;
31786;SDS011;18356;52.380;9.820;2022-08-11T12:25:24;7.88;;;1.50;;
31786;SDS011;18356;52.380;9.820;2022-08-11T12:28:08;4.25;;;1.27;;
31786;SDS011;18356;52.380;9.820;2022-08-11T12:30:35;4.95;;;1.33;;
31786;SDS011;18356;52.380;9.820;2022-08-11T12:33:01;5.72;;;1.60;;
31786;SDS011;18356;52.380;9.820;2022-08-11T12:35:27;6.43;;;1.67;;
31786;SDS011;18356;52.380;9.820;2022-08-11T12:37:54;4.43;;;1.60;;
31786;SDS011;18356;52.380;9.820;2022-08-11T12:40:26;8.98;;;1.52;;
31786;SDS011;18356;52.380;9.820;2022-08-11T12:43:18;8.55;;;1.45;;
31786;SDS011;18356;52.380;9.820;2022-08-11T12:46:05;6.55;;;1.45;;
31786;SDS011;18356;52.380;9.820;2022-08-11T12:48:33;6.95;;;1.67;;
31786;SDS011;18356;52.380;9.820;2022-08-11T12:51:19;3.05;;;1.17;;
31786;SDS011;18356;52.380;9.820;2022-08-11T12:54:16;8.55;;;1.58;;
31786;SDS011;18356;52.380;9.820;2022-08-11T12:56:45;6.28;;;1.30;;
31786;SDS011;18356;52.380;9.820;2022-08-11T12:59:31;10.05;;;1.38;;
31786;SDS011;18356;52.380;9.820;2022-08-11T13:02:17;8.02;;;1.48;;
31786;SDS011;18356;52.380;9.820;2022-08-11T13:05:03;7.63;;;1.80;;
31786;SDS011;18356;52.380;9.820;2022-08-11T13:07:30;4.75;;;1.20;;
31786;SDS011;18356;52.380;9.820;2022-08-11T13:09:57;5.28;;;1.42;;
31786;SDS011;18356;52.380;9.820;2022-08-11T13:12:23;5.00;;;1.20;;
31786;SDS011;18356;52.380;9.820;2022-08-11T13:15:13;4.57;;;1.48;;
31786;SDS011;18356;52.380;9.820;2022-08-11T13:17:39;2.58;;;1.17;;
31786;SDS011;18356;52.380;9.820;2022-08-11T13:20:07;3.90;;;1.33;;
31786;SDS011;18356;52.380;9.820;2022-08-11T13:22:34;4.60;;;1.27;;
31786;SDS011;18356;52.380;9.820;2022-08-11T13:25:02;4.40;;;1.25;;
31786;SDS011;18356;52.380;9.820;2022-08-11T13:27:28;6.00;;;1.17;;
31786;SDS011;18356;52.380;9.820;2022-08-11T13:29:55;6.10;;;1.35;;
31786;SDS011;18356;52.380;9.820;2022-08-11T13:32:41;5.30;;;1.30;;
31786;SDS011;18356;52.380;9.820;2022-08-11T13:35:07;5.43;;;1.02;;
31786;SDS011;18356;52.380;9.820;2022-08-11T13:37:34;5.80;;;1.50;;
31786;SDS011;18356;52.380;9.820;2022-08-11T13:40:00;8.68;;;1.40;;
31786;SDS011;18356;52.380;9.820;2022-08-11T13:42:26;9.63;;;1.63;;
31786;SDS011;18356;52.380;9.820;2022-08-11T13:44:53;7.00;;;1.38;;
31786;SDS011;18356;52.380;9.820;2022-08-11T13:47:20;3.88;;;1.30;;
31786;SDS011;18356;52.380;9.820;2022-08-11T13:49:49;8.30;;;1.15;;
31786;SDS011;18356;52.380;9.820;2022-08-11T13:52:15;5.15;;;1.20;;
31786;SDS011;18356;52.380;9.820;2022-08-11T13:54:42;2.78;;;1.20;;
31786;SDS011;18356;52.380;9.820;2022-08-11T13:57:10;6.30;;;1.60;;
31786;SDS011;18356;52.380;9.820;2022-08-11T13:59:36;4.50;;;1.30;;
31786;SDS011;18356;52.380;9.820;2022-08-11T14:02:04;7.68;;;1.40;;
31786;SDS011;18356;52.380;9.820;2022-08-11T14:04:41;5.72;;;1.30;;
31786;SDS011;18356;52.380;9.820;2022-08-11T14:07:08;6.45;;;1.50;;
31786;SDS011;18356;52.380;9.820;2022-08-11T14:09:36;4.20;;;1.30;;
31786;SDS011;18356;52.380;9.820;2022-08-11T14:12:08;4.03;;;1.30;;
31786;SDS011;18356;52.380;9.820;2022-08-11T14:15:06;6.30;;;1.30;;
31786;SDS011;18356;52.380;9.820;2022-08-11T14:17:35;8.82;;;1.38;;
31786;SDS011;18356;52.380;9.820;2022-08-11T14:20:05;6.20;;;1.45;;
31786;SDS011;18356;52.380;9.820;2022-08-11T14:22:33;3.33;;;1.38;;
31786;SDS011;18356;52.380;9.820;2022-08-11T14:25:00;4.75;;;1.80;;
31786;SDS011;18356;52.380;9.820;2022-08-11T14:27:26;4.70;;;1.73;;
31786;SDS011;18356;52.380;9.820;2022-08-11T14:29:55;8.65;;;1.48;;
31786;SDS011;18356;52.380;9.820;2022-08-11T14:32:21;7.65;;;1.40;;
31786;SDS011;18356;52.380;9.820;2022-08-11T14:34:49;8.05;;;1.70;;
31786;SDS011;18356;52.380;9.820;2022-08-11T14:37:19;6.15;;;1.60;;
31786;SDS011;18356;52.380;9.820;2022-08-11T14:39:47;10.57;;;1.40;;
31786;SDS011;18356;52.380;9.820;2022-08-11T14:42:15;4.10;;;1.40;;
31786;SDS011;18356;52.380;9.820;2022-08-11T14:45:10;6.85;;;1.63;;
31786;SDS011;18356;52.380;9.820;2022-08-11T14:47:58;10.07;;;1.60;;
31786;SDS011;18356;52.380;9.820;2022-08-11T14:50:25;5.38;;;1.60;;
31786;SDS011;18356;52.380;9.820;2022-08-11T14:52:55;6.97;;;1.50;;
31786;SDS011;18356;52.380;9.820;2022-08-11T14:55:23;5.22;;;1.40;;
31786;SDS011;18356;52.380;9.820;2022-08-11T14:58:08;7.82;;;1.40;;
31786;SDS011;18356;52.380;9.820;2022-08-11T15:00:35;8.63;;;1.40;;
31786;SDS011;18356;52.380;9.820;2022-08-11T15:03:02;8.52;;;1.35;;
31786;SDS011;18356;52.380;9.820;2022-08-11T15:05:37;4.95;;;1.48;;
31786;SDS011;18356;52.380;9.820;2022-08-11T15:08:05;4.40;;;1.40;;
31786;SDS011;18356;52.380;9.820;2022-08-11T15:10:31;8.55;;;1.50;;
31786;SDS011;18356;52.380;9.820;2022-08-11T15:12:58;6.82;;;1.30;;
31786;SDS011;18356;52.380;9.820;2022-08-11T15:15:25;6.07;;;1.40;;
31786;SDS011;18356;52.380;9.820;2022-08-11T15:18:10;6.00;;;1.50;;
31786;SDS011;18356;52.380;9.820;2022-08-11T15:20:39;5.65;;;1.70;;
31786;SDS011;18356;52.380;9.820;2022-08-11T15:23:24;4.28;;;1.55;;
31786;SDS011;18356;52.380;9.820;2022-08-11T15:26:10;8.10;;;1.35;;
31786;SDS011;18356;52.380;9.820;2022-08-11T15:28:47;4.70;;;1.40;;
31786;SDS011;18356;52.380;9.820;2022-08-11T15:31:37;5.32;;;1.38;;
31786;SDS011;18356;52.380;9.820;2022-08-11T15:34:07;3.17;;;1.40;;
31786;SDS011;18356;52.380;9.820;2022-08-11T15:37:06;7.03;;;1.33;;
31786;SDS011;18356;52.380;9.820;2022-08-11T15:39:53;4.95;;;1.50;;
31786;SDS011;18356;52.380;9.820;2022-08-11T15:42:44;5.13;;;1.40;;
31786;SDS011;18356;52.380;9.820;2022-08-11T15:45:29;6.57;;;1.40;;
31786;SDS011;18356;52.380;9.820;2022-08-11T15:48:13;3.35;;;1.30;;
31786;SDS011;18356;52.380;9.820;2022-08-11T15:50:45;6.88;;;1.30;;
31786;SDS011;18356;52.380;9.820;2022-08-11T15:55:41;4.03;;;1.50;;
31786;SDS011;18356;52.380;9.820;2022-08-11T15:58:08;5.13;;;1.30;;
31786;SDS011;18356;52.380;9.820;2022-08-11T16:00:53;4.47;;;1.30;;
31786;SDS011;18356;52.380;9.820;2022-08-11T16:03:53;5.32;;;1.50;;
31786;SDS011;18356;52.380;9.820;2022-08-11T16:06:48;3.50;;;1.38;;
31786;SDS011;18356;52.380;9.820;2022-08-11T16:09:20;6.20;;;1.52;;
31786;SDS011;18356;52.380;9.820;2022-08-11T16:11:48;14.88;;;1.50;;
31786;SDS011;18356;52.380;9.820;2022-08-11T16:14:15;5.97;;;1.40;;
31786;SDS011;18356;52.380;9.820;2022-08-11T16:17:00;5.75;;;1.20;;
31786;SDS011;18356;52.380;9.820;2022-08-11T16:19:26;3.45;;;1.35;;
31786;SDS011;18356;52.380;9.820;2022-08-11T16:22:00;7.47;;;1.48;;
31786;SDS011;18356;52.380;9.820;2022-08-11T16:24:27;2.05;;;1.30;;
31786;SDS011;18356;52.380;9.820;2022-08-11T16:26:53;5.28;;;1.60;;
31786;SDS011;18356;52.380;9.820;2022-08-11T16:29:20;3.38;;;1.30;;
31786;SDS011;18356;52.380;9.820;2022-08-11T16:31:49;5.50;;;1.40;;
31786;SDS011;18356;52.380;9.820;2022-08-11T16:34:35;16.00;;;1.42;;
31786;SDS011;18356;52.380;9.820;2022-08-11T16:37:22;17.40;;;1.60;;
31786;SDS011;18356;52.380;9.820;2022-08-11T16:40:07;4.15;;;1.10;;
31786;SDS011;18356;52.380;9.820;2022-08-11T16:42:34;5.72;;;2.03;;
31786;SDS011;18356;52.380;9.820;2022-08-11T16:45:19;7.65;;;1.92;;
31786;SDS011;18356;52.380;9.820;2022-08-11T16:48:05;5.40;;;1.85;;
31786;SDS011;18356;52.380;9.820;2022-08-11T16:50:32;4.00;;;1.58;;
31786;SDS011;18356;52.380;9.820;2022-08-11T16:52:59;7.30;;;1.50;;
31786;SDS011;18356;52.380;9.820;2022-08-11T16:55:25;3.05;;;1.40;;
31786;SDS011;18356;52.380;9.820;2022-08-11T16:57:53;3.22;;;1.40;;
31786;SDS011;18356;52.380;9.820;2022-08-11T17:00:38;7.00;;;1.40;;
31786;SDS011;18356;52.380;9.820;2022-08-11T17:03:05;6.38;;;1.40;;
31786;SDS011;18356;52.380;9.820;2022-08-11T17:05:50;8.27;;;1.38;;
31786;SDS011;18356;52.380;9.820;2022-08-11T17:08:45;4.93;;;1.60;;
31786;SDS011;18356;52.380;9.820;2022-08-11T17:11:31;7.50;;;1.67;;
31786;SDS011;18356;52.380;9.820;2022-08-11T17:14:21;7.53;;;1.90;;
31786;SDS011;18356;52.380;9.820;2022-08-11T17:16:49;8.57;;;1.92;;
31786;SDS011;18356;52.380;9.820;2022-08-11T17:19:17;3.83;;;1.63;;
31786;SDS011;18356;52.380;9.820;2022-08-11T17:21:48;3.75;;;1.50;;
31786;SDS011;18356;52.380;9.820;2022-08-11T17:24:34;6.07;;;1.60;;
31786;SDS011;18356;52.380;9.820;2022-08-11T17:27:01;7.13;;;1.60;;
31786;SDS011;18356;52.380;9.820;2022-08-11T17:29:32;6.07;;;1.70;;
31786;SDS011;18356;52.380;9.820;2022-08-11T17:32:02;5.18;;;1.80;;
31786;SDS011;18356;52.380;9.820;2022-08-11T17:34:48;6.78;;;1.50;;
31786;SDS011;18356;52.380;9.820;2022-08-11T17:37:34;4.82;;;1.50;;
31786;SDS011;18356;52.380;9.820;2022-08-11T17:40:02;8.80;;;1.70;;
31786;SDS011;18356;52.380;9.820;2022-08-11T17:42:29;6.28;;;1.63;;
31786;SDS011;18356;52.380;9.820;2022-08-11T17:45:18;9.75;;;1.92;;
31786;SDS011;18356;52.380;9.820;2022-08-11T17:48:04;7.05;;;1.50;;
31786;SDS011;18356;52.380;9.820;2022-08-11T17:50:49;4.15;;;1.50;;
31786;SDS011;18356;52.380;9.820;2022-08-11T17:53:15;4.75;;;1.50;;
31786;SDS011;18356;52.380;9.820;2022-08-11T17:56:01;5.55;;;1.70;;
31786;SDS011;18356;52.380;9.820;2022-08-11T17:58:47;3.05;;;1.40;;
31786;SDS011;18356;52.380;9.820;2022-08-11T18:01:33;9.10;;;1.67;;
31786;SDS011;18356;52.380;9.820;2022-08-11T18:04:04;5.55;;;1.83;;
31786;SDS011;18356;52.380;9.820;2022-08-11T18:06:30;3.33;;;1.50;;
31786;SDS011;18356;52.380;9.820;2022-08-11T18:08:58;5.07;;;1.58;;
31786;SDS011;18356;52.380;9.820;2022-08-11T18:11:43;7.70;;;1.50;;
31786;SDS011;18356;52.380;9.820;2022-08-11T18:14:29;4.00;;;1.50;;
31786;SDS011;18356;52.380;9.820;2022-08-11T18:17:15;3.90;;;1.80;;
31786;SDS011;18356;52.380;9.820;2022-08-11T18:20:00;4.22;;;1.60;;
31786;SDS011;18356;52.380;9.820;2022-08-11T18:22:44;5.93;;;1.50;;
31786;SDS011;18356;52.380;9.820;2022-08-11T18:25:31;6.00;;;1.50;;
31786;SDS011;18356;52.380;9.820;2022-08-11T18:28:18;4.55;;;1.60;;
31786;SDS011;18356;52.380;9.820;2022-08-11T18:31:04;5.57;;;1.70;;
31786;SDS011;18356;52.380;9.820;2022-08-11T18:33:51;4.45;;;1.60;;
31786;SDS011;18356;52.380;9.820;2022-08-11T18:36:37;9.07;;;1.73;;
31786;SDS011;18356;52.380;9.820;2022-08-11T18:39:24;9.40;;;1.95;;
31786;SDS011;18356;52.380;9.820;2022-08-11T18:42:13;5.93;;;1.52;;
31786;SDS011;18356;52.380;9.820;2022-08-11T18:44:59;3.70;;;1.35;;
31786;SDS011;18356;52.380;9.820;2022-08-11T18:47:45;5.55;;;1.90;;
31786;SDS011;18356;52.380;9.820;2022-08-11T18:50:31;4.80;;;1.55;;
31786;SDS011;18356;52.380;9.820;2022-08-11T18:53:16;5.20;;;1.38;;
31786;SDS011;18356;52.380;9.820;2022-08-11T18:56:02;11.18;;;1.85;;
31786;SDS011;18356;52.380;9.820;2022-08-11T18:58:47;7.97;;;1.70;;
31786;SDS011;18356;52.380;9.820;2022-08-11T19:01:33;4.55;;;1.73;;
31786;SDS011;18356;52.380;9.820;2022-08-11T19:04:19;3.15;;;1.83;;
31786;SDS011;18356;52.380;9.820;2022-08-11T19:07:05;4.45;;;1.83;;
31786;SDS011;18356;52.380;9.820;2022-08-11T19:09:51;3.47;;;1.80;;
31786;SDS011;18356;52.380;9.820;2022-08-11T19:12:38;5.45;;;1.90;;
31786;SDS011;18356;52.380;9.820;2022-08-11T19:15:23;4.57;;;2.08;;
31786;SDS011;18356;52.380;9.820;2022-08-11T19:18:13;6.07;;;1.90;;
31786;SDS011;18356;52.380;9.820;2022-08-11T19:21:00;6.32;;;2.10;;
31786;SDS011;18356;52.380;9.820;2022-08-11T19:23:46;5.47;;;2.20;;